sensor_id;sensor_type;location;lat;lon;timestamp;P1;durP1;ratioP1;P2;durP2;ratioP2
9334;SDS011;4706;41.844;26.082;2022-08-07T00:00:38;51.72;;;30.73;;
9334;SDS011;4706;41.844;26.082;2022-08-07T00:03:03;51.38;;;33.53;;
9334;SDS011;4706;41.844;26.082;2022-08-07T00:05:29;49.47;;;33.47;;
9334;SDS011;4706;41.844;26.082;2022-08-07T00:07:54;45.10;;;30.48;;
9334;SDS011;4706;41.844;26.082;2022-08-07T00:10:20;18.83;;;16.02;;
9334;SDS011;4706;41.844;26.082;2022-08-07T00:12:47;13.07;;;11.82;;
9334;SDS011;4706;41.844;26.082;2022-08-07T00:15:13;10.82;;;9.73;;
9334;SDS011;4706;41.844;26.082;2022-08-07T00:17:39;10.00;;;9.10;;
9334;SDS011;4706;41.844;26.082;2022-08-07T00:20:05;9.10;;;8.40;;
9334;SDS011;4706;41.844;26.082;2022-08-07T00:22:32;9.57;;;8.27;;
9334;SDS011;4706;41.844;26.082;2022-08-07T00:24:57;8.38;;;7.57;;
9334;SDS011;4706;41.844;26.082;2022-08-07T00:27:23;8.20;;;7.50;;
9334;SDS011;4706;41.844;26.082;2022-08-07T00:29:48;7.35;;;6.75;;
9334;SDS011;4706;41.844;26.082;2022-08-07T00:32:14;8.23;;;7.40;;
9334;SDS011;4706;41.844;26.082;2022-08-07T00:34:40;7.78;;;7.15;;
9334;SDS011;4706;41.844;26.082;2022-08-07T00:37:05;7.10;;;6.60;;
9334;SDS011;4706;41.844;26.082;2022-08-07T00:39:31;8.07;;;7.47;;
9334;SDS011;4706;41.844;26.082;2022-08-07T00:41:58;6.82;;;6.25;;
9334;SDS011;4706;41.844;26.082;2022-08-07T00:44:24;7.07;;;6.57;;
9334;SDS011;4706;41.844;26.082;2022-08-07T00:46:50;8.10;;;7.40;;
9334;SDS011;4706;41.844;26.082;2022-08-07T00:49:16;7.68;;;6.97;;
9334;SDS011;4706;41.844;26.082;2022-08-07T00:51:42;7.35;;;6.75;;
9334;SDS011;4706;41.844;26.082;2022-08-07T00:54:08;8.40;;;7.57;;
9334;SDS011;4706;41.844;26.082;2022-08-07T00:56:34;7.10;;;6.60;;
9334;SDS011;4706;41.844;26.082;2022-08-07T00:59:00;7.93;;;7.22;;
9334;SDS011;4706;41.844;26.082;2022-08-07T01:01:26;7.93;;;7.32;;
9334;SDS011;4706;41.844;26.082;2022-08-07T01:03:52;8.45;;;7.63;;
9334;SDS011;4706;41.844;26.082;2022-08-07T01:06:18;7.80;;;7.13;;
9334;SDS011;4706;41.844;26.082;2022-08-07T01:08:44;7.80;;;7.30;;
9334;SDS011;4706;41.844;26.082;2022-08-07T01:11:11;7.93;;;7.32;;
9334;SDS011;4706;41.844;26.082;2022-08-07T01:13:38;7.57;;;6.90;;
9334;SDS011;4706;41.844;26.082;2022-08-07T01:16:04;7.38;;;6.78;;
9334;SDS011;4706;41.844;26.082;2022-08-07T01:18:30;8.02;;;7.43;;
9334;SDS011;4706;41.844;26.082;2022-08-07T01:21:16;8.45;;;7.63;;
9334;SDS011;4706;41.844;26.082;2022-08-07T01:23:45;8.00;;;7.50;;
9334;SDS011;4706;41.844;26.082;2022-08-07T01:26:13;8.60;;;7.70;;
9334;SDS011;4706;41.844;26.082;2022-08-07T01:28:40;7.93;;;7.22;;
9334;SDS011;4706;41.844;26.082;2022-08-07T01:31:07;8.40;;;7.65;;
9334;SDS011;4706;41.844;26.082;2022-08-07T01:33:34;8.35;;;7.65;;
9334;SDS011;4706;41.844;26.082;2022-08-07T01:36:00;8.82;;;8.13;;
9334;SDS011;4706;41.844;26.082;2022-08-07T01:38:26;8.63;;;7.97;;
9334;SDS011;4706;41.844;26.082;2022-08-07T01:41:02;8.48;;;7.70;;
9334;SDS011;4706;41.844;26.082;2022-08-07T01:43:29;8.52;;;7.82;;
9334;SDS011;4706;41.844;26.082;2022-08-07T01:45:56;8.27;;;7.70;;
9334;SDS011;4706;41.844;26.082;2022-08-07T01:48:22;8.55;;;7.95;;
9334;SDS011;4706;41.844;26.082;2022-08-07T01:51:01;8.75;;;7.93;;
9334;SDS011;4706;41.844;26.082;2022-08-07T01:53:31;7.68;;;7.10;;
9334;SDS011;4706;41.844;26.082;2022-08-07T01:56:03;8.18;;;7.47;;
9334;SDS011;4706;41.844;26.082;2022-08-07T01:58:37;8.25;;;7.50;;
9334;SDS011;4706;41.844;26.082;2022-08-07T02:01:13;7.70;;;7.00;;
9334;SDS011;4706;41.844;26.082;2022-08-07T02:03:44;8.13;;;7.35;;
9334;SDS011;4706;41.844;26.082;2022-08-07T02:06:14;8.07;;;7.28;;
9334;SDS011;4706;41.844;26.082;2022-08-07T02:08:41;8.13;;;7.53;;
9334;SDS011;4706;41.844;26.082;2022-08-07T02:11:09;8.32;;;7.63;;
9334;SDS011;4706;41.844;26.082;2022-08-07T02:13:35;8.40;;;7.80;;
9334;SDS011;4706;41.844;26.082;2022-08-07T02:16:03;8.32;;;7.53;;
9334;SDS011;4706;41.844;26.082;2022-08-07T02:18:32;7.47;;;6.97;;
9334;SDS011;4706;41.844;26.082;2022-08-07T02:21:00;8.10;;;7.50;;
9334;SDS011;4706;41.844;26.082;2022-08-07T02:23:28;8.23;;;7.53;;
9334;SDS011;4706;41.844;26.082;2022-08-07T02:25:56;7.85;;;7.10;;
9334;SDS011;4706;41.844;26.082;2022-08-07T02:28:22;7.97;;;7.28;;
9334;SDS011;4706;41.844;26.082;2022-08-07T02:30:51;7.78;;;7.15;;
9334;SDS011;4706;41.844;26.082;2022-08-07T02:33:19;8.18;;;7.47;;
9334;SDS011;4706;41.844;26.082;2022-08-07T02:35:47;8.27;;;7.57;;
9334;SDS011;4706;41.844;26.082;2022-08-07T02:38:14;9.13;;;8.38;;
9334;SDS011;4706;41.844;26.082;2022-08-07T02:40:42;8.55;;;7.85;;
9334;SDS011;4706;41.844;26.082;2022-08-07T02:43:08;12.70;;;10.48;;
9334;SDS011;4706;41.844;26.082;2022-08-07T02:45:34;19.73;;;15.40;;
9334;SDS011;4706;41.844;26.082;2022-08-07T02:48:03;27.45;;;18.63;;
9334;SDS011;4706;41.844;26.082;2022-08-07T02:50:29;58.38;;;35.38;;
9334;SDS011;4706;41.844;26.082;2022-08-07T02:53:00;74.90;;;44.58;;
9334;SDS011;4706;41.844;26.082;2022-08-07T02:55:30;77.90;;;47.72;;
9334;SDS011;4706;41.844;26.082;2022-08-07T02:58:03;81.90;;;47.90;;
9334;SDS011;4706;41.844;26.082;2022-08-07T03:00:34;67.13;;;42.80;;
9334;SDS011;4706;41.844;26.082;2022-08-07T03:03:03;50.78;;;35.13;;
9334;SDS011;4706;41.844;26.082;2022-08-07T03:05:31;40.78;;;29.55;;
9334;SDS011;4706;41.844;26.082;2022-08-07T03:07:58;33.08;;;23.50;;
9334;SDS011;4706;41.844;26.082;2022-08-07T03:10:24;25.92;;;19.50;;
9334;SDS011;4706;41.844;26.082;2022-08-07T03:12:49;23.63;;;17.95;;
9334;SDS011;4706;41.844;26.082;2022-08-07T03:15:17;23.33;;;17.27;;
9334;SDS011;4706;41.844;26.082;2022-08-07T03:17:43;24.58;;;15.48;;
9334;SDS011;4706;41.844;26.082;2022-08-07T03:20:10;22.38;;;15.70;;
9334;SDS011;4706;41.844;26.082;2022-08-07T03:22:36;21.13;;;16.42;;
9334;SDS011;4706;41.844;26.082;2022-08-07T03:25:04;26.10;;;19.58;;
9334;SDS011;4706;41.844;26.082;2022-08-07T03:27:30;35.80;;;22.30;;
9334;SDS011;4706;41.844;26.082;2022-08-07T03:29:58;42.50;;;28.17;;
9334;SDS011;4706;41.844;26.082;2022-08-07T03:32:25;44.47;;;29.23;;
9334;SDS011;4706;41.844;26.082;2022-08-07T03:34:58;37.72;;;24.08;;
9334;SDS011;4706;41.844;26.082;2022-08-07T03:37:27;25.23;;;18.98;;
9334;SDS011;4706;41.844;26.082;2022-08-07T03:39:55;23.15;;;16.60;;
9334;SDS011;4706;41.844;26.082;2022-08-07T03:42:21;18.27;;;12.43;;
9334;SDS011;4706;41.844;26.082;2022-08-07T03:44:47;12.73;;;10.80;;
9334;SDS011;4706;41.844;26.082;2022-08-07T03:47:13;11.57;;;9.57;;
9334;SDS011;4706;41.844;26.082;2022-08-07T03:49:40;11.20;;;9.50;;
9334;SDS011;4706;41.844;26.082;2022-08-07T03:52:07;10.48;;;9.43;;
9334;SDS011;4706;41.844;26.082;2022-08-07T03:54:34;11.40;;;10.30;;
9334;SDS011;4706;41.844;26.082;2022-08-07T03:57:00;10.65;;;9.68;;
9334;SDS011;4706;41.844;26.082;2022-08-07T03:59:28;10.70;;;9.77;;
9334;SDS011;4706;41.844;26.082;2022-08-07T04:01:54;9.40;;;8.48;;
9334;SDS011;4706;41.844;26.082;2022-08-07T04:04:20;9.45;;;8.65;;
9334;SDS011;4706;41.844;26.082;2022-08-07T04:06:46;9.07;;;8.38;;
9334;SDS011;4706;41.844;26.082;2022-08-07T04:09:12;9.13;;;8.18;;
9334;SDS011;4706;41.844;26.082;2022-08-07T04:11:39;9.57;;;8.65;;
9334;SDS011;4706;41.844;26.082;2022-08-07T04:14:05;9.48;;;8.65;;
9334;SDS011;4706;41.844;26.082;2022-08-07T04:16:32;10.15;;;9.25;;
9334;SDS011;4706;41.844;26.082;2022-08-07T04:18:59;11.35;;;10.38;;
9334;SDS011;4706;41.844;26.082;2022-08-07T04:21:25;10.13;;;9.43;;
9334;SDS011;4706;41.844;26.082;2022-08-07T04:23:51;9.68;;;8.90;;
9334;SDS011;4706;41.844;26.082;2022-08-07T04:26:17;10.25;;;9.30;;
9334;SDS011;4706;41.844;26.082;2022-08-07T04:28:43;9.48;;;8.68;;
9334;SDS011;4706;41.844;26.082;2022-08-07T04:31:09;11.23;;;10.18;;
9334;SDS011;4706;41.844;26.082;2022-08-07T04:33:35;10.43;;;9.52;;
9334;SDS011;4706;41.844;26.082;2022-08-07T04:36:02;12.25;;;11.20;;
9334;SDS011;4706;41.844;26.082;2022-08-07T04:38:29;13.68;;;12.48;;
9334;SDS011;4706;41.844;26.082;2022-08-07T04:40:55;12.90;;;11.73;;
9334;SDS011;4706;41.844;26.082;2022-08-07T04:43:23;12.80;;;11.55;;
9334;SDS011;4706;41.844;26.082;2022-08-07T04:48:25;14.52;;;12.52;;
9334;SDS011;4706;41.844;26.082;2022-08-07T04:50:55;13.55;;;12.25;;
9334;SDS011;4706;41.844;26.082;2022-08-07T04:53:44;12.70;;;11.43;;
9334;SDS011;4706;41.844;26.082;2022-08-07T04:56:23;10.10;;;9.10;;
9334;SDS011;4706;41.844;26.082;2022-08-07T04:59:14;11.95;;;10.82;;
9334;SDS011;4706;41.844;26.082;2022-08-07T05:02:09;12.43;;;11.13;;
9334;SDS011;4706;41.844;26.082;2022-08-07T05:04:47;26.98;;;18.75;;
9334;SDS011;4706;41.844;26.082;2022-08-07T05:07:35;33.88;;;22.88;;
9334;SDS011;4706;41.844;26.082;2022-08-07T05:10:10;43.33;;;27.92;;
9334;SDS011;4706;41.844;26.082;2022-08-07T05:12:41;39.47;;;26.80;;
9334;SDS011;4706;41.844;26.082;2022-08-07T05:15:18;31.70;;;20.83;;
9334;SDS011;4706;41.844;26.082;2022-08-07T05:17:48;30.80;;;20.35;;
9334;SDS011;4706;41.844;26.082;2022-08-07T05:20:21;27.23;;;19.30;;
9334;SDS011;4706;41.844;26.082;2022-08-07T05:22:51;25.05;;;18.15;;
9334;SDS011;4706;41.844;26.082;2022-08-07T05:25:20;23.95;;;14.82;;
9334;SDS011;4706;41.844;26.082;2022-08-07T05:27:47;26.40;;;12.90;;
9334;SDS011;4706;41.844;26.082;2022-08-07T05:30:15;18.05;;;12.27;;
9334;SDS011;4706;41.844;26.082;2022-08-07T05:32:42;13.27;;;11.57;;
9334;SDS011;4706;41.844;26.082;2022-08-07T05:35:13;13.38;;;11.20;;
9334;SDS011;4706;41.844;26.082;2022-08-07T05:37:40;31.33;;;16.75;;
9334;SDS011;4706;41.844;26.082;2022-08-07T05:40:07;41.30;;;22.05;;
9334;SDS011;4706;41.844;26.082;2022-08-07T05:42:35;25.80;;;16.98;;
9334;SDS011;4706;41.844;26.082;2022-08-07T05:45:03;23.08;;;13.88;;
9334;SDS011;4706;41.844;26.082;2022-08-07T05:47:30;15.85;;;10.88;;
9334;SDS011;4706;41.844;26.082;2022-08-07T05:49:56;14.85;;;10.65;;
9334;SDS011;4706;41.844;26.082;2022-08-07T05:52:22;12.15;;;10.88;;
9334;SDS011;4706;41.844;26.082;2022-08-07T05:54:48;12.82;;;11.07;;
9334;SDS011;4706;41.844;26.082;2022-08-07T05:57:14;12.60;;;11.10;;
9334;SDS011;4706;41.844;26.082;2022-08-07T05:59:41;12.13;;;10.93;;
9334;SDS011;4706;41.844;26.082;2022-08-07T06:02:09;13.63;;;12.25;;
9334;SDS011;4706;41.844;26.082;2022-08-07T06:04:40;18.88;;;16.85;;
9334;SDS011;4706;41.844;26.082;2022-08-07T06:07:10;18.17;;;16.45;;
9334;SDS011;4706;41.844;26.082;2022-08-07T06:09:35;15.98;;;14.48;;
9334;SDS011;4706;41.844;26.082;2022-08-07T06:12:02;26.13;;;23.30;;
9334;SDS011;4706;41.844;26.082;2022-08-07T06:14:28;63.42;;;57.45;;
9334;SDS011;4706;41.844;26.082;2022-08-07T06:16:54;16.50;;;14.70;;
9334;SDS011;4706;41.844;26.082;2022-08-07T06:19:21;12.25;;;11.10;;
9334;SDS011;4706;41.844;26.082;2022-08-07T06:21:48;8.82;;;8.07;;
9334;SDS011;4706;41.844;26.082;2022-08-07T06:24:15;8.95;;;8.05;;
9334;SDS011;4706;41.844;26.082;2022-08-07T06:26:41;7.85;;;7.00;;
9334;SDS011;4706;41.844;26.082;2022-08-07T06:29:07;7.13;;;6.40;;
9334;SDS011;4706;41.844;26.082;2022-08-07T06:31:33;7.43;;;6.72;;
9334;SDS011;4706;41.844;26.082;2022-08-07T06:33:59;7.00;;;6.40;;
9334;SDS011;4706;41.844;26.082;2022-08-07T06:36:24;7.55;;;6.95;;
9334;SDS011;4706;41.844;26.082;2022-08-07T06:38:51;7.75;;;7.00;;
9334;SDS011;4706;41.844;26.082;2022-08-07T06:41:18;8.27;;;7.68;;
9334;SDS011;4706;41.844;26.082;2022-08-07T06:43:48;8.98;;;7.90;;
9334;SDS011;4706;41.844;26.082;2022-08-07T06:46:14;9.32;;;6.35;;
9334;SDS011;4706;41.844;26.082;2022-08-07T06:48:41;8.02;;;7.20;;
9334;SDS011;4706;41.844;26.082;2022-08-07T06:51:08;9.15;;;6.68;;
9334;SDS011;4706;41.844;26.082;2022-08-07T06:53:36;8.00;;;7.30;;
9334;SDS011;4706;41.844;26.082;2022-08-07T06:56:04;13.73;;;12.57;;
9334;SDS011;4706;41.844;26.082;2022-08-07T06:58:35;8.25;;;7.03;;
9334;SDS011;4706;41.844;26.082;2022-08-07T07:01:02;7.43;;;6.75;;
9334;SDS011;4706;41.844;26.082;2022-08-07T07:03:31;24.75;;;22.65;;
9334;SDS011;4706;41.844;26.082;2022-08-07T07:05:58;8.23;;;7.40;;
9334;SDS011;4706;41.844;26.082;2022-08-07T07:08:25;7.03;;;6.43;;
9334;SDS011;4706;41.844;26.082;2022-08-07T07:10:51;7.15;;;6.55;;
9334;SDS011;4706;41.844;26.082;2022-08-07T07:13:19;7.97;;;7.32;;
9334;SDS011;4706;41.844;26.082;2022-08-07T07:15:53;7.00;;;6.45;;
9334;SDS011;4706;41.844;26.082;2022-08-07T07:18:26;9.98;;;8.50;;
9334;SDS011;4706;41.844;26.082;2022-08-07T07:20:55;13.95;;;12.82;;
9334;SDS011;4706;41.844;26.082;2022-08-07T07:23:25;8.60;;;7.88;;
9334;SDS011;4706;41.844;26.082;2022-08-07T07:25:55;6.40;;;5.88;;
9334;SDS011;4706;41.844;26.082;2022-08-07T07:28:28;6.70;;;6.10;;
9334;SDS011;4706;41.844;26.082;2022-08-07T07:31:13;6.90;;;6.40;;
9334;SDS011;4706;41.844;26.082;2022-08-07T07:33:44;9.48;;;8.77;;
9334;SDS011;4706;41.844;26.082;2022-08-07T07:36:12;6.75;;;6.30;;
9334;SDS011;4706;41.844;26.082;2022-08-07T07:38:38;7.93;;;7.15;;
9334;SDS011;4706;41.844;26.082;2022-08-07T07:41:07;12.30;;;11.40;;
9334;SDS011;4706;41.844;26.082;2022-08-07T07:43:36;12.00;;;11.10;;
9334;SDS011;4706;41.844;26.082;2022-08-07T07:46:05;6.97;;;6.47;;
9334;SDS011;4706;41.844;26.082;2022-08-07T07:48:33;7.63;;;6.82;;
9334;SDS011;4706;41.844;26.082;2022-08-07T07:51:00;6.45;;;5.85;;
9334;SDS011;4706;41.844;26.082;2022-08-07T07:53:30;6.63;;;6.13;;
9334;SDS011;4706;41.844;26.082;2022-08-07T07:55:58;6.45;;;5.93;;
9334;SDS011;4706;41.844;26.082;2022-08-07T07:58:26;6.43;;;5.93;;
9334;SDS011;4706;41.844;26.082;2022-08-07T08:00:55;6.15;;;5.75;;
9334;SDS011;4706;41.844;26.082;2022-08-07T08:03:22;6.40;;;5.75;;
9334;SDS011;4706;41.844;26.082;2022-08-07T08:05:48;6.38;;;5.85;;
9334;SDS011;4706;41.844;26.082;2022-08-07T08:08:16;8.10;;;7.30;;
9334;SDS011;4706;41.844;26.082;2022-08-07T08:10:42;6.72;;;5.70;;
9334;SDS011;4706;41.844;26.082;2022-08-07T08:13:10;6.82;;;6.10;;
9334;SDS011;4706;41.844;26.082;2022-08-07T08:15:38;6.03;;;5.63;;
9334;SDS011;4706;41.844;26.082;2022-08-07T08:18:06;7.00;;;5.60;;
9334;SDS011;4706;41.844;26.082;2022-08-07T08:20:34;5.93;;;5.32;;
9334;SDS011;4706;41.844;26.082;2022-08-07T08:23:02;7.28;;;6.68;;
9334;SDS011;4706;41.844;26.082;2022-08-07T08:25:46;6.57;;;6.00;;
9334;SDS011;4706;41.844;26.082;2022-08-07T08:28:35;6.80;;;5.88;;
9334;SDS011;4706;41.844;26.082;2022-08-07T08:31:05;7.25;;;6.57;;
9334;SDS011;4706;41.844;26.082;2022-08-07T08:33:33;7.32;;;6.80;;
9334;SDS011;4706;41.844;26.082;2022-08-07T08:36:03;6.57;;;6.15;;
9334;SDS011;4706;41.844;26.082;2022-08-07T08:38:33;6.38;;;5.80;;
9334;SDS011;4706;41.844;26.082;2022-08-07T08:52:12;5.95;;;5.38;;
9334;SDS011;4706;41.844;26.082;2022-08-07T08:54:46;6.05;;;5.60;;
9334;SDS011;4706;41.844;26.082;2022-08-07T08:57:35;6.18;;;5.60;;
9334;SDS011;4706;41.844;26.082;2022-08-07T09:11:12;6.35;;;5.75;;
9334;SDS011;4706;41.844;26.082;2022-08-07T09:13:45;6.78;;;5.82;;
9334;SDS011;4706;41.844;26.082;2022-08-07T09:34:57;6.93;;;6.30;;
9334;SDS011;4706;41.844;26.082;2022-08-07T09:37:40;5.82;;;5.43;;
9334;SDS011;4706;41.844;26.082;2022-08-07T09:40:18;6.63;;;6.03;;
9334;SDS011;4706;41.844;26.082;2022-08-07T09:54:01;6.57;;;6.07;;
9334;SDS011;4706;41.844;26.082;2022-08-07T09:56:52;7.57;;;6.78;;
9334;SDS011;4706;41.844;26.082;2022-08-07T10:11:04;9.10;;;7.47;;
9334;SDS011;4706;41.844;26.082;2022-08-07T10:14:01;7.20;;;6.57;;
9334;SDS011;4706;41.844;26.082;2022-08-07T10:22:41;7.20;;;6.20;;
9334;SDS011;4706;41.844;26.082;2022-08-07T10:40:13;7.18;;;6.57;;
9334;SDS011;4706;41.844;26.082;2022-08-07T10:45:37;12.05;;;6.28;;
9334;SDS011;4706;41.844;26.082;2022-08-07T10:48:11;6.32;;;5.80;;
9334;SDS011;4706;41.844;26.082;2022-08-07T10:51:00;7.10;;;5.75;;
9334;SDS011;4706;41.844;26.082;2022-08-07T10:59:32;6.28;;;5.68;;
9334;SDS011;4706;41.844;26.082;2022-08-07T11:07:30;6.10;;;5.70;;
9334;SDS011;4706;41.844;26.082;2022-08-07T11:11:05;6.00;;;5.50;;
9334;SDS011;4706;41.844;26.082;2022-08-07T11:15:49;6.95;;;6.45;;
9334;SDS011;4706;41.844;26.082;2022-08-07T11:18:24;6.57;;;5.97;;
9334;SDS011;4706;41.844;26.082;2022-08-07T11:21:10;7.78;;;6.25;;
9334;SDS011;4706;41.844;26.082;2022-08-07T11:24:23;6.40;;;5.82;;
9334;SDS011;4706;41.844;26.082;2022-08-07T11:27:00;6.55;;;5.78;;
9334;SDS011;4706;41.844;26.082;2022-08-07T11:34:44;6.65;;;5.75;;
9334;SDS011;4706;41.844;26.082;2022-08-07T11:37:27;6.03;;;5.53;;
9334;SDS011;4706;41.844;26.082;2022-08-07T11:48:50;10.15;;;6.15;;
9334;SDS011;4706;41.844;26.082;2022-08-07T12:05:45;4.97;;;4.47;;
9334;SDS011;4706;41.844;26.082;2022-08-07T12:08:37;6.13;;;4.20;;
9334;SDS011;4706;41.844;26.082;2022-08-07T12:11:15;4.32;;;3.65;;
9334;SDS011;4706;41.844;26.082;2022-08-07T12:13:46;5.75;;;3.60;;
9334;SDS011;4706;41.844;26.082;2022-08-07T12:16:21;5.05;;;3.63;;
9334;SDS011;4706;41.844;26.082;2022-08-07T12:21:48;4.30;;;3.90;;
9334;SDS011;4706;41.844;26.082;2022-08-07T12:24:17;6.10;;;4.50;;
9334;SDS011;4706;41.844;26.082;2022-08-07T12:29:22;5.85;;;5.07;;
9334;SDS011;4706;41.844;26.082;2022-08-07T12:31:57;8.90;;;5.07;;
9334;SDS011;4706;41.844;26.082;2022-08-07T12:34:29;5.10;;;4.70;;
9334;SDS011;4706;41.844;26.082;2022-08-07T12:36:58;5.40;;;4.90;;
9334;SDS011;4706;41.844;26.082;2022-08-07T12:39:25;7.32;;;4.90;;
9334;SDS011;4706;41.844;26.082;2022-08-07T12:41:54;5.47;;;4.97;;
9334;SDS011;4706;41.844;26.082;2022-08-07T12:44:23;5.35;;;4.88;;
9334;SDS011;4706;41.844;26.082;2022-08-07T12:52:11;5.53;;;5.05;;
9334;SDS011;4706;41.844;26.082;2022-08-07T12:57:26;5.28;;;4.88;;
9334;SDS011;4706;41.844;26.082;2022-08-07T12:59:54;5.65;;;5.15;;
9334;SDS011;4706;41.844;26.082;2022-08-07T13:05:41;4.70;;;4.30;;
9334;SDS011;4706;41.844;26.082;2022-08-07T13:08:34;5.13;;;4.63;;
9334;SDS011;4706;41.844;26.082;2022-08-07T13:13:55;4.63;;;4.32;;
9334;SDS011;4706;41.844;26.082;2022-08-07T13:21:52;4.53;;;4.13;;
9334;SDS011;4706;41.844;26.082;2022-08-07T13:27:20;4.43;;;3.92;;
9334;SDS011;4706;41.844;26.082;2022-08-07T13:35:40;5.10;;;4.50;;
9334;SDS011;4706;41.844;26.082;2022-08-07T13:43:49;4.55;;;4.07;;
9334;SDS011;4706;41.844;26.082;2022-08-07T13:46:18;4.20;;;3.80;;
9334;SDS011;4706;41.844;26.082;2022-08-07T13:48:51;4.03;;;3.72;;
9334;SDS011;4706;41.844;26.082;2022-08-07T13:51:20;4.60;;;4.20;;
9334;SDS011;4706;41.844;26.082;2022-08-07T13:53:53;4.55;;;3.80;;
9334;SDS011;4706;41.844;26.082;2022-08-07T13:56:22;4.57;;;4.18;;
9334;SDS011;4706;41.844;26.082;2022-08-07T13:58:50;4.50;;;4.07;;
9334;SDS011;4706;41.844;26.082;2022-08-07T14:01:35;4.88;;;4.40;;
9334;SDS011;4706;41.844;26.082;2022-08-07T14:04:10;6.70;;;4.15;;
9334;SDS011;4706;41.844;26.082;2022-08-07T14:06:43;5.57;;;4.47;;
9334;SDS011;4706;41.844;26.082;2022-08-07T14:09:15;4.75;;;4.35;;
9334;SDS011;4706;41.844;26.082;2022-08-07T14:11:53;5.05;;;4.28;;
9334;SDS011;4706;41.844;26.082;2022-08-07T14:14:28;5.03;;;4.40;;
9334;SDS011;4706;41.844;26.082;2022-08-07T14:16:55;4.75;;;4.35;;
9334;SDS011;4706;41.844;26.082;2022-08-07T14:19:30;4.43;;;4.05;;
9334;SDS011;4706;41.844;26.082;2022-08-07T14:22:00;7.75;;;4.40;;
9334;SDS011;4706;41.844;26.082;2022-08-07T14:24:33;5.40;;;4.50;;
9334;SDS011;4706;41.844;26.082;2022-08-07T14:27:02;4.55;;;4.15;;
9334;SDS011;4706;41.844;26.082;2022-08-07T14:29:36;5.68;;;4.50;;
9334;SDS011;4706;41.844;26.082;2022-08-07T14:32:07;5.93;;;4.47;;
9334;SDS011;4706;41.844;26.082;2022-08-07T14:34:38;5.53;;;4.38;;
9334;SDS011;4706;41.844;26.082;2022-08-07T14:37:08;5.65;;;5.05;;
9334;SDS011;4706;41.844;26.082;2022-08-07T14:39:35;4.90;;;4.50;;
9334;SDS011;4706;41.844;26.082;2022-08-07T14:42:02;5.10;;;3.92;;
9334;SDS011;4706;41.844;26.082;2022-08-07T14:44:30;4.60;;;3.60;;
9334;SDS011;4706;41.844;26.082;2022-08-07T14:46:57;4.22;;;3.83;;
9334;SDS011;4706;41.844;26.082;2022-08-07T14:49:30;4.43;;;4.07;;
9334;SDS011;4706;41.844;26.082;2022-08-07T14:51:58;6.13;;;4.55;;
9334;SDS011;4706;41.844;26.082;2022-08-07T14:54:30;4.65;;;4.18;;
9334;SDS011;4706;41.844;26.082;2022-08-07T14:56:57;9.18;;;4.68;;
9334;SDS011;4706;41.844;26.082;2022-08-07T14:59:25;6.80;;;4.40;;
9334;SDS011;4706;41.844;26.082;2022-08-07T15:01:53;5.07;;;4.40;;
9334;SDS011;4706;41.844;26.082;2022-08-07T15:04:22;7.03;;;4.93;;
9334;SDS011;4706;41.844;26.082;2022-08-07T15:06:48;4.82;;;4.40;;
9334;SDS011;4706;41.844;26.082;2022-08-07T15:09:15;4.70;;;4.30;;
9334;SDS011;4706;41.844;26.082;2022-08-07T15:12:04;8.10;;;4.47;;
9334;SDS011;4706;41.844;26.082;2022-08-07T15:14:34;7.40;;;4.40;;
9334;SDS011;4706;41.844;26.082;2022-08-07T15:17:03;4.70;;;4.40;;
9334;SDS011;4706;41.844;26.082;2022-08-07T15:19:39;5.88;;;5.00;;
9334;SDS011;4706;41.844;26.082;2022-08-07T15:22:21;4.70;;;4.30;;
9334;SDS011;4706;41.844;26.082;2022-08-07T15:24:51;8.52;;;7.43;;
9334;SDS011;4706;41.844;26.082;2022-08-07T15:27:20;5.47;;;4.55;;
9334;SDS011;4706;41.844;26.082;2022-08-07T15:29:52;5.30;;;4.55;;
9334;SDS011;4706;41.844;26.082;2022-08-07T15:32:20;4.75;;;4.35;;
9334;SDS011;4706;41.844;26.082;2022-08-07T15:34:49;7.30;;;4.65;;
9334;SDS011;4706;41.844;26.082;2022-08-07T15:37:18;4.68;;;4.22;;
9334;SDS011;4706;41.844;26.082;2022-08-07T15:39:53;7.22;;;4.47;;
9334;SDS011;4706;41.844;26.082;2022-08-07T15:45:05;9.65;;;4.80;;
9334;SDS011;4706;41.844;26.082;2022-08-07T15:47:33;9.00;;;4.85;;
9334;SDS011;4706;41.844;26.082;2022-08-07T15:50:05;5.07;;;4.32;;
9334;SDS011;4706;41.844;26.082;2022-08-07T15:52:34;4.70;;;4.30;;
9334;SDS011;4706;41.844;26.082;2022-08-07T15:55:02;8.10;;;4.60;;
9334;SDS011;4706;41.844;26.082;2022-08-07T15:57:31;7.68;;;4.75;;
9334;SDS011;4706;41.844;26.082;2022-08-07T16:00:03;10.98;;;4.90;;
9334;SDS011;4706;41.844;26.082;2022-08-07T16:02:40;5.07;;;4.55;;
9334;SDS011;4706;41.844;26.082;2022-08-07T16:05:10;6.13;;;4.95;;
9334;SDS011;4706;41.844;26.082;2022-08-07T16:07:41;6.05;;;4.93;;
9334;SDS011;4706;41.844;26.082;2022-08-07T16:10:31;5.15;;;4.70;;
9334;SDS011;4706;41.844;26.082;2022-08-07T16:13:26;11.65;;;6.03;;
9334;SDS011;4706;41.844;26.082;2022-08-07T16:22:01;6.72;;;5.28;;
9334;SDS011;4706;41.844;26.082;2022-08-07T16:24:49;5.50;;;4.78;;
9334;SDS011;4706;41.844;26.082;2022-08-07T16:27:25;8.18;;;5.13;;
9334;SDS011;4706;41.844;26.082;2022-08-07T16:32:45;5.10;;;4.70;;
9334;SDS011;4706;41.844;26.082;2022-08-07T16:38:34;7.70;;;4.82;;
9334;SDS011;4706;41.844;26.082;2022-08-07T16:53:12;7.57;;;5.25;;
9334;SDS011;4706;41.844;26.082;2022-08-07T17:10:03;8.57;;;4.78;;
9334;SDS011;4706;41.844;26.082;2022-08-07T17:15:19;9.18;;;5.10;;
9334;SDS011;4706;41.844;26.082;2022-08-07T17:18:07;5.90;;;5.38;;
9334;SDS011;4706;41.844;26.082;2022-08-07T17:21:13;10.82;;;6.20;;
9334;SDS011;4706;41.844;26.082;2022-08-07T17:27:02;7.05;;;6.20;;
9334;SDS011;4706;41.844;26.082;2022-08-07T17:32:20;6.72;;;5.85;;
9334;SDS011;4706;41.844;26.082;2022-08-07T17:34:54;8.35;;;7.55;;
9334;SDS011;4706;41.844;26.082;2022-08-07T17:37:29;8.57;;;7.28;;
9334;SDS011;4706;41.844;26.082;2022-08-07T17:40:05;12.98;;;8.27;;
9334;SDS011;4706;41.844;26.082;2022-08-07T17:42:50;9.00;;;7.60;;
9334;SDS011;4706;41.844;26.082;2022-08-07T17:48:21;11.00;;;7.05;;
9334;SDS011;4706;41.844;26.082;2022-08-07T17:51:36;8.98;;;6.80;;
9334;SDS011;4706;41.844;26.082;2022-08-07T17:53:57;14.60;;;7.70;;
9334;SDS011;4706;41.844;26.082;2022-08-07T17:56:41;10.55;;;7.18;;
9334;SDS011;4706;41.844;26.082;2022-08-07T17:59:27;7.68;;;6.97;;
9334;SDS011;4706;41.844;26.082;2022-08-07T18:02:11;8.98;;;7.13;;
9334;SDS011;4706;41.844;26.082;2022-08-07T18:15:30;10.18;;;7.18;;
9334;SDS011;4706;41.844;26.082;2022-08-07T18:18:10;13.27;;;10.35;;
9334;SDS011;4706;41.844;26.082;2022-08-07T18:20:39;21.88;;;16.60;;
9334;SDS011;4706;41.844;26.082;2022-08-07T18:23:13;55.50;;;33.72;;
9334;SDS011;4706;41.844;26.082;2022-08-07T18:25:48;75.63;;;45.65;;
9334;SDS011;4706;41.844;26.082;2022-08-07T18:28:29;77.47;;;43.92;;
9334;SDS011;4706;41.844;26.082;2022-08-07T18:31:04;72.20;;;41.20;;
9334;SDS011;4706;41.844;26.082;2022-08-07T18:36:43;30.42;;;21.40;;
9334;SDS011;4706;41.844;26.082;2022-08-07T18:56:04;19.92;;;14.43;;
9334;SDS011;4706;41.844;26.082;2022-08-07T18:59:08;10.65;;;9.57;;
9334;SDS011;4706;41.844;26.082;2022-08-07T19:01:51;8.68;;;7.88;;
9334;SDS011;4706;41.844;26.082;2022-08-07T19:04:27;8.77;;;7.95;;
9334;SDS011;4706;41.844;26.082;2022-08-07T19:07:03;12.63;;;7.85;;
9334;SDS011;4706;41.844;26.082;2022-08-07T19:17:53;7.85;;;7.07;;
9334;SDS011;4706;41.844;26.082;2022-08-07T19:23:23;7.78;;;7.10;;
9334;SDS011;4706;41.844;26.082;2022-08-07T19:25:53;8.55;;;6.68;;
9334;SDS011;4706;41.844;26.082;2022-08-07T19:28:28;7.45;;;6.70;;
9334;SDS011;4706;41.844;26.082;2022-08-07T19:31:06;7.43;;;6.72;;
9334;SDS011;4706;41.844;26.082;2022-08-07T19:33:42;8.93;;;7.68;;
9334;SDS011;4706;41.844;26.082;2022-08-07T19:36:10;8.32;;;7.53;;
9334;SDS011;4706;41.844;26.082;2022-08-07T19:38:39;7.72;;;6.90;;
9334;SDS011;4706;41.844;26.082;2022-08-07T19:41:07;7.70;;;7.00;;
9334;SDS011;4706;41.844;26.082;2022-08-07T19:43:36;7.43;;;6.68;;